Llanera, Spain
Current Conditions -  °F | °C
As of 6:09 PM on Saturday 20 Dec 2014 (Local Time) from LEAS Reporting Station
Moderate Fog Moderate Fog  
Wind Chill: 55°   Ceiling: 400
Heat Index: 55°   Visibility: 0.5mi
Dew Point: 55°   Wind: 0mph
Humidity: 100%   Direction: NA
Pressure: 30.56"   Gusts: NA
Location:  43.46°N, 5.93°W
Report Text: LEAS 201709Z 00000KT 0800 0400W R29/1800U R11/1200U FGSCT002 BKN004 13/13 Q1035 TEMPO 1500 BCFG BKN007
Loading
Personal Weather Stations






























Interactive Weather Map New forecast layout! Learn more

10-Day Weather Forecast

Advertisements
Track Severe Weather on mobile